sensor_id;sensor_type;location;lat;lon;timestamp;P1;durP1;ratioP1;P2;durP2;ratioP2
11267;SDS011;72685;47.474;9.416;2023-12-20T00:02:22;8.07;;;5.50;;
11267;SDS011;72685;47.474;9.416;2023-12-20T00:04:48;9.13;;;5.50;;
11267;SDS011;72685;47.474;9.416;2023-12-20T00:07:13;8.77;;;6.00;;
11267;SDS011;72685;47.474;9.416;2023-12-20T00:09:39;8.80;;;6.40;;
11267;SDS011;72685;47.474;9.416;2023-12-20T00:12:04;8.93;;;5.87;;
11267;SDS011;72685;47.474;9.416;2023-12-20T00:14:30;9.57;;;6.33;;
11267;SDS011;72685;47.474;9.416;2023-12-20T00:16:55;7.93;;;6.17;;
11267;SDS011;72685;47.474;9.416;2023-12-20T00:19:20;8.80;;;6.13;;
11267;SDS011;72685;47.474;9.416;2023-12-20T00:21:46;6.80;;;5.57;;
11267;SDS011;72685;47.474;9.416;2023-12-20T00:24:11;6.03;;;5.43;;
11267;SDS011;72685;47.474;9.416;2023-12-20T00:26:36;10.10;;;6.33;;
11267;SDS011;72685;47.474;9.416;2023-12-20T00:29:02;8.57;;;6.37;;
11267;SDS011;72685;47.474;9.416;2023-12-20T00:31:27;8.23;;;6.33;;
11267;SDS011;72685;47.474;9.416;2023-12-20T00:33:53;8.93;;;5.57;;
11267;SDS011;72685;47.474;9.416;2023-12-20T00:36:18;7.70;;;6.00;;
11267;SDS011;72685;47.474;9.416;2023-12-20T00:38:44;9.33;;;6.10;;
11267;SDS011;72685;47.474;9.416;2023-12-20T00:41:10;8.83;;;5.70;;
11267;SDS011;72685;47.474;9.416;2023-12-20T00:43:35;10.07;;;6.53;;
11267;SDS011;72685;47.474;9.416;2023-12-20T00:46:00;7.40;;;5.97;;
11267;SDS011;72685;47.474;9.416;2023-12-20T00:48:26;9.80;;;6.00;;
11267;SDS011;72685;47.474;9.416;2023-12-20T00:50:56;7.83;;;6.20;;
11267;SDS011;72685;47.474;9.416;2023-12-20T00:53:22;7.57;;;5.37;;
11267;SDS011;72685;47.474;9.416;2023-12-20T00:55:48;7.07;;;5.33;;
11267;SDS011;72685;47.474;9.416;2023-12-20T00:58:13;6.83;;;5.33;;
11267;SDS011;72685;47.474;9.416;2023-12-20T01:00:40;6.87;;;5.70;;
11267;SDS011;72685;47.474;9.416;2023-12-20T01:03:07;6.87;;;5.60;;
11267;SDS011;72685;47.474;9.416;2023-12-20T01:05:32;7.63;;;5.40;;
11267;SDS011;72685;47.474;9.416;2023-12-20T01:07:57;9.47;;;6.00;;
11267;SDS011;72685;47.474;9.416;2023-12-20T01:10:23;8.13;;;5.63;;
11267;SDS011;72685;47.474;9.416;2023-12-20T01:12:48;7.03;;;5.97;;
11267;SDS011;72685;47.474;9.416;2023-12-20T01:15:14;9.63;;;6.23;;
11267;SDS011;72685;47.474;9.416;2023-12-20T01:17:39;7.10;;;5.93;;
11267;SDS011;72685;47.474;9.416;2023-12-20T01:20:05;7.80;;;6.10;;
11267;SDS011;72685;47.474;9.416;2023-12-20T01:22:31;6.97;;;5.43;;
11267;SDS011;72685;47.474;9.416;2023-12-20T01:24:56;9.10;;;5.63;;
11267;SDS011;72685;47.474;9.416;2023-12-20T01:27:21;7.70;;;5.33;;
11267;SDS011;72685;47.474;9.416;2023-12-20T01:29:47;6.33;;;5.60;;
11267;SDS011;72685;47.474;9.416;2023-12-20T01:32:12;6.23;;;5.40;;
11267;SDS011;72685;47.474;9.416;2023-12-20T01:34:37;7.63;;;5.83;;
11267;SDS011;72685;47.474;9.416;2023-12-20T01:37:03;8.13;;;5.63;;
11267;SDS011;72685;47.474;9.416;2023-12-20T01:39:29;8.30;;;5.80;;
11267;SDS011;72685;47.474;9.416;2023-12-20T01:41:54;6.03;;;4.77;;
11267;SDS011;72685;47.474;9.416;2023-12-20T01:44:20;8.77;;;5.40;;
11267;SDS011;72685;47.474;9.416;2023-12-20T01:46:45;5.90;;;4.87;;
11267;SDS011;72685;47.474;9.416;2023-12-20T01:49:12;5.90;;;4.67;;
11267;SDS011;72685;47.474;9.416;2023-12-20T01:51:38;7.00;;;4.40;;
11267;SDS011;72685;47.474;9.416;2023-12-20T01:54:04;5.90;;;4.60;;
11267;SDS011;72685;47.474;9.416;2023-12-20T01:56:30;7.73;;;4.73;;
11267;SDS011;72685;47.474;9.416;2023-12-20T01:58:56;5.83;;;3.93;;
11267;SDS011;72685;47.474;9.416;2023-12-20T02:01:23;5.37;;;4.33;;
11267;SDS011;72685;47.474;9.416;2023-12-20T02:03:49;5.60;;;4.13;;
11267;SDS011;72685;47.474;9.416;2023-12-20T02:06:15;5.73;;;4.67;;
11267;SDS011;72685;47.474;9.416;2023-12-20T02:08:41;6.77;;;4.83;;
11267;SDS011;72685;47.474;9.416;2023-12-20T02:11:07;7.20;;;4.77;;
11267;SDS011;72685;47.474;9.416;2023-12-20T02:13:32;6.57;;;5.20;;
11267;SDS011;72685;47.474;9.416;2023-12-20T02:15:58;5.13;;;4.43;;
11267;SDS011;72685;47.474;9.416;2023-12-20T02:18:24;6.33;;;5.00;;
11267;SDS011;72685;47.474;9.416;2023-12-20T02:20:49;6.63;;;4.63;;
11267;SDS011;72685;47.474;9.416;2023-12-20T02:23:14;6.40;;;4.53;;
11267;SDS011;72685;47.474;9.416;2023-12-20T02:25:40;5.50;;;4.70;;
11267;SDS011;72685;47.474;9.416;2023-12-20T02:28:06;5.27;;;4.30;;
11267;SDS011;72685;47.474;9.416;2023-12-20T02:30:31;4.63;;;4.20;;
11267;SDS011;72685;47.474;9.416;2023-12-20T02:32:57;5.07;;;4.50;;
11267;SDS011;72685;47.474;9.416;2023-12-20T02:35:28;3.97;;;3.67;;
11267;SDS011;72685;47.474;9.416;2023-12-20T02:37:54;5.60;;;4.13;;
11267;SDS011;72685;47.474;9.416;2023-12-20T02:40:19;4.97;;;3.77;;
11267;SDS011;72685;47.474;9.416;2023-12-20T02:42:44;5.23;;;3.50;;
11267;SDS011;72685;47.474;9.416;2023-12-20T02:45:10;5.00;;;4.30;;
11267;SDS011;72685;47.474;9.416;2023-12-20T02:47:35;6.73;;;4.30;;
11267;SDS011;72685;47.474;9.416;2023-12-20T02:50:00;4.03;;;3.53;;
11267;SDS011;72685;47.474;9.416;2023-12-20T02:52:27;4.53;;;3.93;;
11267;SDS011;72685;47.474;9.416;2023-12-20T02:54:53;4.40;;;3.33;;
11267;SDS011;72685;47.474;9.416;2023-12-20T02:57:19;4.10;;;3.57;;
11267;SDS011;72685;47.474;9.416;2023-12-20T02:59:44;6.37;;;3.83;;
11267;SDS011;72685;47.474;9.416;2023-12-20T03:02:09;5.20;;;3.33;;
11267;SDS011;72685;47.474;9.416;2023-12-20T03:04:35;4.33;;;3.93;;
11267;SDS011;72685;47.474;9.416;2023-12-20T03:07:00;3.47;;;2.93;;
11267;SDS011;72685;47.474;9.416;2023-12-20T03:09:26;8.47;;;4.10;;
11267;SDS011;72685;47.474;9.416;2023-12-20T03:11:51;4.77;;;3.47;;
11267;SDS011;72685;47.474;9.416;2023-12-20T03:14:16;4.37;;;3.50;;
11267;SDS011;72685;47.474;9.416;2023-12-20T03:16:46;3.40;;;3.10;;
11267;SDS011;72685;47.474;9.416;2023-12-20T03:19:14;4.03;;;3.30;;
11267;SDS011;72685;47.474;9.416;2023-12-20T03:21:40;4.10;;;3.17;;
11267;SDS011;72685;47.474;9.416;2023-12-20T03:24:05;2.93;;;2.67;;
11267;SDS011;72685;47.474;9.416;2023-12-20T03:26:31;5.20;;;3.20;;
11267;SDS011;72685;47.474;9.416;2023-12-20T03:28:56;2.87;;;2.60;;
11267;SDS011;72685;47.474;9.416;2023-12-20T03:31:21;3.23;;;2.37;;
11267;SDS011;72685;47.474;9.416;2023-12-20T03:33:47;3.03;;;2.73;;
11267;SDS011;72685;47.474;9.416;2023-12-20T03:36:12;2.80;;;2.60;;
11267;SDS011;72685;47.474;9.416;2023-12-20T03:38:37;2.53;;;2.33;;
11267;SDS011;72685;47.474;9.416;2023-12-20T03:41:03;2.90;;;2.67;;
11267;SDS011;72685;47.474;9.416;2023-12-20T03:43:29;3.30;;;3.00;;
11267;SDS011;72685;47.474;9.416;2023-12-20T03:45:54;2.47;;;2.37;;
11267;SDS011;72685;47.474;9.416;2023-12-20T03:48:19;3.27;;;2.70;;
11267;SDS011;72685;47.474;9.416;2023-12-20T03:50:45;4.70;;;2.47;;
11267;SDS011;72685;47.474;9.416;2023-12-20T03:53:10;4.23;;;2.87;;
11267;SDS011;72685;47.474;9.416;2023-12-20T03:55:36;2.60;;;2.40;;
11267;SDS011;72685;47.474;9.416;2023-12-20T03:58:01;2.70;;;2.50;;
11267;SDS011;72685;47.474;9.416;2023-12-20T04:00:26;2.63;;;2.43;;
11267;SDS011;72685;47.474;9.416;2023-12-20T04:02:52;2.63;;;2.43;;
11267;SDS011;72685;47.474;9.416;2023-12-20T04:05:17;3.50;;;3.20;;
11267;SDS011;72685;47.474;9.416;2023-12-20T04:07:43;6.43;;;2.53;;
11267;SDS011;72685;47.474;9.416;2023-12-20T04:10:09;2.30;;;2.10;;
11267;SDS011;72685;47.474;9.416;2023-12-20T04:12:34;3.10;;;2.83;;
11267;SDS011;72685;47.474;9.416;2023-12-20T04:14:59;2.60;;;2.40;;
11267;SDS011;72685;47.474;9.416;2023-12-20T04:17:25;2.50;;;2.30;;
11267;SDS011;72685;47.474;9.416;2023-12-20T04:19:51;3.83;;;2.70;;
11267;SDS011;72685;47.474;9.416;2023-12-20T04:22:17;2.80;;;2.60;;
11267;SDS011;72685;47.474;9.416;2023-12-20T04:24:43;3.10;;;2.80;;
11267;SDS011;72685;47.474;9.416;2023-12-20T04:27:08;2.67;;;2.50;;
11267;SDS011;72685;47.474;9.416;2023-12-20T04:29:34;4.93;;;2.93;;
11267;SDS011;72685;47.474;9.416;2023-12-20T04:31:59;3.13;;;2.60;;
11267;SDS011;72685;47.474;9.416;2023-12-20T04:34:25;2.67;;;2.47;;
11267;SDS011;72685;47.474;9.416;2023-12-20T04:36:51;4.37;;;3.13;;
11267;SDS011;72685;47.474;9.416;2023-12-20T04:39:16;2.90;;;2.70;;
11267;SDS011;72685;47.474;9.416;2023-12-20T04:41:41;3.40;;;2.83;;
11267;SDS011;72685;47.474;9.416;2023-12-20T04:44:07;2.73;;;2.53;;
11267;SDS011;72685;47.474;9.416;2023-12-20T04:46:32;2.60;;;2.40;;
11267;SDS011;72685;47.474;9.416;2023-12-20T04:48:57;3.87;;;2.87;;
11267;SDS011;72685;47.474;9.416;2023-12-20T04:51:23;3.30;;;2.93;;
11267;SDS011;72685;47.474;9.416;2023-12-20T04:53:48;3.57;;;3.00;;
11267;SDS011;72685;47.474;9.416;2023-12-20T04:56:14;3.63;;;3.33;;
11267;SDS011;72685;47.474;9.416;2023-12-20T04:58:39;3.20;;;2.90;;
11267;SDS011;72685;47.474;9.416;2023-12-20T05:01:05;3.60;;;3.20;;
11267;SDS011;72685;47.474;9.416;2023-12-20T05:03:31;2.83;;;2.63;;
11267;SDS011;72685;47.474;9.416;2023-12-20T05:05:56;3.20;;;2.90;;
11267;SDS011;72685;47.474;9.416;2023-12-20T05:08:22;3.33;;;2.97;;
11267;SDS011;72685;47.474;9.416;2023-12-20T05:10:47;3.60;;;3.23;;
11267;SDS011;72685;47.474;9.416;2023-12-20T05:13:13;3.43;;;3.17;;
11267;SDS011;72685;47.474;9.416;2023-12-20T05:15:38;4.07;;;3.00;;
11267;SDS011;72685;47.474;9.416;2023-12-20T05:18:04;3.47;;;2.63;;
11267;SDS011;72685;47.474;9.416;2023-12-20T05:20:29;2.63;;;2.43;;
11267;SDS011;72685;47.474;9.416;2023-12-20T05:22:54;2.53;;;2.43;;
11267;SDS011;72685;47.474;9.416;2023-12-20T05:25:20;2.60;;;2.30;;
11267;SDS011;72685;47.474;9.416;2023-12-20T05:27:45;2.73;;;2.50;;
11267;SDS011;72685;47.474;9.416;2023-12-20T05:30:11;2.43;;;2.23;;
11267;SDS011;72685;47.474;9.416;2023-12-20T05:32:36;3.10;;;2.80;;
11267;SDS011;72685;47.474;9.416;2023-12-20T05:35:01;2.57;;;2.20;;
11267;SDS011;72685;47.474;9.416;2023-12-20T05:37:28;2.17;;;2.07;;
11267;SDS011;72685;47.474;9.416;2023-12-20T05:39:53;2.27;;;2.00;;
11267;SDS011;72685;47.474;9.416;2023-12-20T05:42:19;1.97;;;1.80;;
11267;SDS011;72685;47.474;9.416;2023-12-20T05:44:44;2.60;;;2.40;;
11267;SDS011;72685;47.474;9.416;2023-12-20T05:47:09;2.53;;;2.33;;
11267;SDS011;72685;47.474;9.416;2023-12-20T05:49:35;2.53;;;2.33;;
11267;SDS011;72685;47.474;9.416;2023-12-20T05:52:00;2.20;;;2.10;;
11267;SDS011;72685;47.474;9.416;2023-12-20T05:54:25;1.93;;;1.83;;
11267;SDS011;72685;47.474;9.416;2023-12-20T05:56:51;2.03;;;1.93;;
11267;SDS011;72685;47.474;9.416;2023-12-20T05:59:16;2.30;;;2.10;;
11267;SDS011;72685;47.474;9.416;2023-12-20T06:01:41;2.37;;;2.17;;
11267;SDS011;72685;47.474;9.416;2023-12-20T06:04:07;2.70;;;2.50;;
11267;SDS011;72685;47.474;9.416;2023-12-20T06:06:32;3.93;;;2.07;;
11267;SDS011;72685;47.474;9.416;2023-12-20T06:08:57;2.83;;;2.63;;
11267;SDS011;72685;47.474;9.416;2023-12-20T06:11:23;3.30;;;2.63;;
11267;SDS011;72685;47.474;9.416;2023-12-20T06:13:48;2.70;;;2.50;;
11267;SDS011;72685;47.474;9.416;2023-12-20T06:16:17;5.03;;;2.50;;
11267;SDS011;72685;47.474;9.416;2023-12-20T06:18:43;3.27;;;2.63;;
11267;SDS011;72685;47.474;9.416;2023-12-20T06:21:08;2.03;;;1.93;;
11267;SDS011;72685;47.474;9.416;2023-12-20T06:23:37;2.53;;;2.33;;
11267;SDS011;72685;47.474;9.416;2023-12-20T06:26:03;2.60;;;2.40;;
11267;SDS011;72685;47.474;9.416;2023-12-20T06:28:28;2.63;;;2.40;;
11267;SDS011;72685;47.474;9.416;2023-12-20T06:30:54;4.17;;;3.00;;
11267;SDS011;72685;47.474;9.416;2023-12-20T06:33:20;2.50;;;2.40;;
11267;SDS011;72685;47.474;9.416;2023-12-20T06:35:46;2.90;;;2.70;;
11267;SDS011;72685;47.474;9.416;2023-12-20T06:38:11;3.17;;;2.97;;
11267;SDS011;72685;47.474;9.416;2023-12-20T06:40:37;2.70;;;2.50;;
11267;SDS011;72685;47.474;9.416;2023-12-20T06:43:02;3.00;;;2.63;;
11267;SDS011;72685;47.474;9.416;2023-12-20T06:45:28;3.27;;;3.00;;
11267;SDS011;72685;47.474;9.416;2023-12-20T06:47:53;2.70;;;2.50;;
11267;SDS011;72685;47.474;9.416;2023-12-20T06:50:20;3.40;;;2.90;;
11267;SDS011;72685;47.474;9.416;2023-12-20T06:52:45;2.77;;;2.57;;
11267;SDS011;72685;47.474;9.416;2023-12-20T06:55:10;3.57;;;3.00;;
11267;SDS011;72685;47.474;9.416;2023-12-20T06:57:36;2.83;;;2.63;;
11267;SDS011;72685;47.474;9.416;2023-12-20T07:00:02;3.23;;;2.93;;
11267;SDS011;72685;47.474;9.416;2023-12-20T07:02:28;4.63;;;3.00;;
11267;SDS011;72685;47.474;9.416;2023-12-20T07:04:55;3.40;;;3.10;;
11267;SDS011;72685;47.474;9.416;2023-12-20T07:07:21;3.17;;;2.90;;
11267;SDS011;72685;47.474;9.416;2023-12-20T07:09:48;2.47;;;2.27;;
11267;SDS011;72685;47.474;9.416;2023-12-20T07:12:13;2.90;;;2.70;;
11267;SDS011;72685;47.474;9.416;2023-12-20T07:14:39;2.17;;;2.07;;
11267;SDS011;72685;47.474;9.416;2023-12-20T07:17:04;3.20;;;2.90;;
11267;SDS011;72685;47.474;9.416;2023-12-20T07:19:29;2.90;;;2.70;;
11267;SDS011;72685;47.474;9.416;2023-12-20T07:21:55;2.57;;;2.37;;
11267;SDS011;72685;47.474;9.416;2023-12-20T07:24:20;2.47;;;2.27;;
11267;SDS011;72685;47.474;9.416;2023-12-20T07:26:45;2.50;;;2.40;;
11267;SDS011;72685;47.474;9.416;2023-12-20T07:29:11;2.60;;;2.40;;
11267;SDS011;72685;47.474;9.416;2023-12-20T07:31:36;2.93;;;2.63;;
11267;SDS011;72685;47.474;9.416;2023-12-20T07:34:02;2.70;;;2.50;;
11267;SDS011;72685;47.474;9.416;2023-12-20T07:36:27;2.40;;;2.30;;
11267;SDS011;72685;47.474;9.416;2023-12-20T07:38:52;6.10;;;2.80;;
11267;SDS011;72685;47.474;9.416;2023-12-20T07:41:17;2.10;;;2.00;;
11267;SDS011;72685;47.474;9.416;2023-12-20T07:43:46;2.07;;;1.97;;
11267;SDS011;72685;47.474;9.416;2023-12-20T07:46:11;1.97;;;1.87;;
11267;SDS011;72685;47.474;9.416;2023-12-20T07:48:37;5.53;;;1.63;;
11267;SDS011;72685;47.474;9.416;2023-12-20T07:51:06;2.10;;;2.00;;
11267;SDS011;72685;47.474;9.416;2023-12-20T07:53:33;2.10;;;2.00;;
11267;SDS011;72685;47.474;9.416;2023-12-20T07:55:58;1.93;;;1.83;;
11267;SDS011;72685;47.474;9.416;2023-12-20T07:58:23;2.00;;;1.90;;
11267;SDS011;72685;47.474;9.416;2023-12-20T08:00:49;1.80;;;1.70;;
11267;SDS011;72685;47.474;9.416;2023-12-20T08:03:14;2.20;;;1.80;;
11267;SDS011;72685;47.474;9.416;2023-12-20T08:05:40;1.73;;;1.63;;
11267;SDS011;72685;47.474;9.416;2023-12-20T08:08:05;2.00;;;1.80;;
11267;SDS011;72685;47.474;9.416;2023-12-20T08:10:31;2.20;;;2.10;;
11267;SDS011;72685;47.474;9.416;2023-12-20T08:12:56;2.03;;;1.93;;
11267;SDS011;72685;47.474;9.416;2023-12-20T08:15:22;1.80;;;1.70;;
11267;SDS011;72685;47.474;9.416;2023-12-20T08:17:48;1.97;;;1.87;;
11267;SDS011;72685;47.474;9.416;2023-12-20T08:20:16;2.00;;;1.90;;
11267;SDS011;72685;47.474;9.416;2023-12-20T08:22:41;1.90;;;1.80;;
11267;SDS011;72685;47.474;9.416;2023-12-20T08:25:07;1.97;;;1.87;;
11267;SDS011;72685;47.474;9.416;2023-12-20T08:27:33;1.80;;;1.70;;
11267;SDS011;72685;47.474;9.416;2023-12-20T08:29:59;2.30;;;2.20;;
11267;SDS011;72685;47.474;9.416;2023-12-20T08:32:28;1.80;;;1.70;;
11267;SDS011;72685;47.474;9.416;2023-12-20T08:34:53;1.80;;;1.70;;
11267;SDS011;72685;47.474;9.416;2023-12-20T08:37:19;2.70;;;1.90;;
11267;SDS011;72685;47.474;9.416;2023-12-20T08:39:44;1.80;;;1.70;;
11267;SDS011;72685;47.474;9.416;2023-12-20T08:42:10;1.83;;;1.73;;
11267;SDS011;72685;47.474;9.416;2023-12-20T08:44:35;1.50;;;1.50;;
11267;SDS011;72685;47.474;9.416;2023-12-20T08:47:00;2.07;;;1.97;;
11267;SDS011;72685;47.474;9.416;2023-12-20T08:49:26;1.93;;;1.60;;
11267;SDS011;72685;47.474;9.416;2023-12-20T08:51:53;1.70;;;1.60;;
11267;SDS011;72685;47.474;9.416;2023-12-20T08:54:18;1.93;;;1.83;;
11267;SDS011;72685;47.474;9.416;2023-12-20T08:56:44;2.13;;;2.03;;
11267;SDS011;72685;47.474;9.416;2023-12-20T08:59:10;2.70;;;2.50;;
11267;SDS011;72685;47.474;9.416;2023-12-20T09:01:35;2.00;;;1.90;;
11267;SDS011;72685;47.474;9.416;2023-12-20T09:04:00;1.90;;;1.80;;
11267;SDS011;72685;47.474;9.416;2023-12-20T09:06:26;2.00;;;1.90;;
11267;SDS011;72685;47.474;9.416;2023-12-20T09:08:51;1.80;;;1.70;;
11267;SDS011;72685;47.474;9.416;2023-12-20T09:11:17;1.87;;;1.77;;
11267;SDS011;72685;47.474;9.416;2023-12-20T09:13:42;2.00;;;1.90;;
11267;SDS011;72685;47.474;9.416;2023-12-20T09:16:09;1.70;;;1.67;;
11267;SDS011;72685;47.474;9.416;2023-12-20T09:18:35;1.80;;;1.70;;
11267;SDS011;72685;47.474;9.416;2023-12-20T09:21:00;2.00;;;1.90;;
11267;SDS011;72685;47.474;9.416;2023-12-20T09:23:25;2.90;;;1.70;;
11267;SDS011;72685;47.474;9.416;2023-12-20T09:25:51;1.80;;;1.70;;
11267;SDS011;72685;47.474;9.416;2023-12-20T09:28:16;2.00;;;1.90;;
11267;SDS011;72685;47.474;9.416;2023-12-20T09:30:42;1.93;;;1.83;;
11267;SDS011;72685;47.474;9.416;2023-12-20T09:33:07;2.10;;;2.00;;
11267;SDS011;72685;47.474;9.416;2023-12-20T09:35:33;1.93;;;1.83;;
11267;SDS011;72685;47.474;9.416;2023-12-20T09:37:58;2.20;;;2.00;;
11267;SDS011;72685;47.474;9.416;2023-12-20T09:40:23;2.10;;;2.00;;
11267;SDS011;72685;47.474;9.416;2023-12-20T09:42:58;2.43;;;2.23;;
11267;SDS011;72685;47.474;9.416;2023-12-20T09:45:28;2.00;;;1.90;;
11267;SDS011;72685;47.474;9.416;2023-12-20T09:47:56;2.83;;;2.10;;
11267;SDS011;72685;47.474;9.416;2023-12-20T09:50:23;1.97;;;1.77;;
11267;SDS011;72685;47.474;9.416;2023-12-20T09:52:52;2.50;;;2.07;;
11267;SDS011;72685;47.474;9.416;2023-12-20T09:55:18;1.93;;;1.83;;
11267;SDS011;72685;47.474;9.416;2023-12-20T09:57:45;1.70;;;1.60;;
11267;SDS011;72685;47.474;9.416;2023-12-20T10:00:11;1.67;;;1.57;;
11267;SDS011;72685;47.474;9.416;2023-12-20T10:02:38;1.80;;;1.77;;
11267;SDS011;72685;47.474;9.416;2023-12-20T10:05:10;1.57;;;1.57;;
11267;SDS011;72685;47.474;9.416;2023-12-20T10:07:41;2.00;;;1.90;;
11267;SDS011;72685;47.474;9.416;2023-12-20T10:10:06;1.57;;;1.57;;
11267;SDS011;72685;47.474;9.416;2023-12-20T10:12:34;1.63;;;1.60;;
11267;SDS011;72685;47.474;9.416;2023-12-20T10:14:59;1.93;;;1.83;;
11267;SDS011;72685;47.474;9.416;2023-12-20T10:17:25;1.83;;;1.73;;
11267;SDS011;72685;47.474;9.416;2023-12-20T10:19:54;1.87;;;1.77;;
11267;SDS011;72685;47.474;9.416;2023-12-20T10:22:19;3.03;;;1.70;;
11267;SDS011;72685;47.474;9.416;2023-12-20T10:24:45;2.07;;;1.97;;
11267;SDS011;72685;47.474;9.416;2023-12-20T10:27:11;1.60;;;1.60;;
11267;SDS011;72685;47.474;9.416;2023-12-20T10:29:37;2.07;;;1.97;;
11267;SDS011;72685;47.474;9.416;2023-12-20T10:34:49;2.10;;;1.97;;
11267;SDS011;72685;47.474;9.416;2023-12-20T10:37:14;2.00;;;1.90;;
11267;SDS011;72685;47.474;9.416;2023-12-20T10:39:40;1.83;;;1.80;;
11267;SDS011;72685;47.474;9.416;2023-12-20T10:42:08;1.93;;;1.83;;
11267;SDS011;72685;47.474;9.416;2023-12-20T10:44:36;2.00;;;1.90;;
11267;SDS011;72685;47.474;9.416;2023-12-20T10:47:01;1.90;;;1.80;;
11267;SDS011;72685;47.474;9.416;2023-12-20T10:49:29;1.80;;;1.70;;
11267;SDS011;72685;47.474;9.416;2023-12-20T10:51:55;1.80;;;1.70;;
11267;SDS011;72685;47.474;9.416;2023-12-20T10:54:24;2.00;;;1.90;;
11267;SDS011;72685;47.474;9.416;2023-12-20T10:56:50;2.13;;;2.03;;
11267;SDS011;72685;47.474;9.416;2023-12-20T10:59:17;2.07;;;1.97;;
11267;SDS011;72685;47.474;9.416;2023-12-20T11:01:45;3.27;;;1.80;;
11267;SDS011;72685;47.474;9.416;2023-12-20T11:04:13;2.13;;;1.93;;
11267;SDS011;72685;47.474;9.416;2023-12-20T11:06:47;1.87;;;1.77;;
11267;SDS011;72685;47.474;9.416;2023-12-20T11:12:08;2.00;;;1.90;;
11267;SDS011;72685;47.474;9.416;2023-12-20T11:14:42;2.53;;;2.33;;
11267;SDS011;72685;47.474;9.416;2023-12-20T11:17:09;2.10;;;2.00;;
11267;SDS011;72685;47.474;9.416;2023-12-20T11:19:36;2.10;;;2.00;;
11267;SDS011;72685;47.474;9.416;2023-12-20T11:22:08;3.13;;;2.40;;
11267;SDS011;72685;47.474;9.416;2023-12-20T11:24:34;2.33;;;2.23;;
11267;SDS011;72685;47.474;9.416;2023-12-20T11:27:02;2.43;;;2.33;;
11267;SDS011;72685;47.474;9.416;2023-12-20T11:29:32;2.00;;;1.90;;
11267;SDS011;72685;47.474;9.416;2023-12-20T11:32:03;3.27;;;2.63;;
11267;SDS011;72685;47.474;9.416;2023-12-20T11:34:50;2.60;;;2.40;;
11267;SDS011;72685;47.474;9.416;2023-12-20T11:37:16;3.03;;;2.77;;
11267;SDS011;72685;47.474;9.416;2023-12-20T11:39:42;2.87;;;2.60;;
11267;SDS011;72685;47.474;9.416;2023-12-20T11:42:09;2.33;;;2.23;;
11267;SDS011;72685;47.474;9.416;2023-12-20T11:44:36;2.53;;;2.33;;
11267;SDS011;72685;47.474;9.416;2023-12-20T11:47:02;3.23;;;2.87;;
11267;SDS011;72685;47.474;9.416;2023-12-20T11:49:27;3.17;;;2.87;;
11267;SDS011;72685;47.474;9.416;2023-12-20T11:51:55;3.07;;;2.87;;
11267;SDS011;72685;47.474;9.416;2023-12-20T11:54:21;3.57;;;3.27;;
11267;SDS011;72685;47.474;9.416;2023-12-20T11:56:47;2.83;;;2.60;;
11267;SDS011;72685;47.474;9.416;2023-12-20T11:59:12;3.73;;;3.07;;
11267;SDS011;72685;47.474;9.416;2023-12-20T12:01:38;3.50;;;3.20;;
11267;SDS011;72685;47.474;9.416;2023-12-20T12:04:04;3.60;;;3.17;;
11267;SDS011;72685;47.474;9.416;2023-12-20T12:06:30;3.83;;;3.53;;
11267;SDS011;72685;47.474;9.416;2023-12-20T12:08:55;3.90;;;3.50;;
11267;SDS011;72685;47.474;9.416;2023-12-20T12:11:21;3.90;;;3.60;;
11267;SDS011;72685;47.474;9.416;2023-12-20T12:13:47;3.30;;;3.00;;
11267;SDS011;72685;47.474;9.416;2023-12-20T12:16:13;3.83;;;3.53;;
11267;SDS011;72685;47.474;9.416;2023-12-20T12:18:42;3.60;;;3.30;;
11267;SDS011;72685;47.474;9.416;2023-12-20T12:21:08;3.63;;;3.40;;
11267;SDS011;72685;47.474;9.416;2023-12-20T12:23:34;4.07;;;3.57;;
11267;SDS011;72685;47.474;9.416;2023-12-20T12:26:00;4.47;;;3.97;;
11267;SDS011;72685;47.474;9.416;2023-12-20T12:28:29;4.07;;;3.77;;
11267;SDS011;72685;47.474;9.416;2023-12-20T12:31:00;4.30;;;3.47;;
11267;SDS011;72685;47.474;9.416;2023-12-20T12:33:25;4.20;;;3.90;;
11267;SDS011;72685;47.474;9.416;2023-12-20T12:35:51;3.47;;;3.17;;
11267;SDS011;72685;47.474;9.416;2023-12-20T12:38:19;3.20;;;3.00;;
11267;SDS011;72685;47.474;9.416;2023-12-20T12:40:46;2.80;;;2.60;;
11267;SDS011;72685;47.474;9.416;2023-12-20T12:43:11;3.90;;;3.60;;
11267;SDS011;72685;47.474;9.416;2023-12-20T12:45:37;3.43;;;3.13;;
11267;SDS011;72685;47.474;9.416;2023-12-20T12:48:03;3.67;;;3.37;;
11267;SDS011;72685;47.474;9.416;2023-12-20T12:50:29;5.53;;;3.23;;
11267;SDS011;72685;47.474;9.416;2023-12-20T12:52:56;4.23;;;3.63;;
11267;SDS011;72685;47.474;9.416;2023-12-20T12:55:21;3.67;;;3.37;;
11267;SDS011;72685;47.474;9.416;2023-12-20T12:57:47;3.67;;;3.43;;
11267;SDS011;72685;47.474;9.416;2023-12-20T13:00:12;3.43;;;3.13;;
11267;SDS011;72685;47.474;9.416;2023-12-20T13:02:38;5.53;;;3.47;;
11267;SDS011;72685;47.474;9.416;2023-12-20T13:05:07;3.40;;;3.10;;
11267;SDS011;72685;47.474;9.416;2023-12-20T13:07:33;4.80;;;3.73;;
11267;SDS011;72685;47.474;9.416;2023-12-20T13:09:59;3.80;;;3.50;;
11267;SDS011;72685;47.474;9.416;2023-12-20T13:12:25;3.40;;;3.13;;
11267;SDS011;72685;47.474;9.416;2023-12-20T13:14:50;4.07;;;3.77;;
11267;SDS011;72685;47.474;9.416;2023-12-20T13:17:16;3.47;;;3.17;;
11267;SDS011;72685;47.474;9.416;2023-12-20T13:19:41;3.20;;;3.00;;
11267;SDS011;72685;47.474;9.416;2023-12-20T13:22:07;3.57;;;3.27;;
11267;SDS011;72685;47.474;9.416;2023-12-20T13:24:32;4.10;;;3.13;;
11267;SDS011;72685;47.474;9.416;2023-12-20T13:26:58;3.37;;;3.10;;
11267;SDS011;72685;47.474;9.416;2023-12-20T13:29:23;3.30;;;3.10;;
11267;SDS011;72685;47.474;9.416;2023-12-20T13:31:49;3.73;;;3.33;;
11267;SDS011;72685;47.474;9.416;2023-12-20T13:34:14;3.30;;;3.00;;
11267;SDS011;72685;47.474;9.416;2023-12-20T13:36:42;3.07;;;2.83;;
11267;SDS011;72685;47.474;9.416;2023-12-20T13:39:11;3.30;;;3.10;;
11267;SDS011;72685;47.474;9.416;2023-12-20T13:41:37;3.27;;;3.07;;
11267;SDS011;72685;47.474;9.416;2023-12-20T13:44:02;2.80;;;2.60;;
11267;SDS011;72685;47.474;9.416;2023-12-20T13:46:28;2.20;;;2.10;;
11267;SDS011;72685;47.474;9.416;2023-12-20T13:48:54;2.60;;;2.50;;
11267;SDS011;72685;47.474;9.416;2023-12-20T13:51:20;2.80;;;2.60;;
11267;SDS011;72685;47.474;9.416;2023-12-20T13:53:46;3.43;;;2.93;;
11267;SDS011;72685;47.474;9.416;2023-12-20T13:56:13;3.50;;;3.20;;
11267;SDS011;72685;47.474;9.416;2023-12-20T13:58:39;2.80;;;2.60;;
11267;SDS011;72685;47.474;9.416;2023-12-20T14:01:05;2.97;;;2.70;;
11267;SDS011;72685;47.474;9.416;2023-12-20T14:03:31;2.83;;;2.63;;
11267;SDS011;72685;47.474;9.416;2023-12-20T14:05:57;3.60;;;2.80;;
11267;SDS011;72685;47.474;9.416;2023-12-20T14:08:22;3.17;;;2.87;;
11267;SDS011;72685;47.474;9.416;2023-12-20T14:10:48;3.10;;;2.47;;
11267;SDS011;72685;47.474;9.416;2023-12-20T14:13:14;2.83;;;2.60;;
11267;SDS011;72685;47.474;9.416;2023-12-20T14:15:39;3.30;;;3.00;;
11267;SDS011;72685;47.474;9.416;2023-12-20T14:18:05;2.63;;;2.43;;
11267;SDS011;72685;47.474;9.416;2023-12-20T14:20:34;2.53;;;2.37;;
11267;SDS011;72685;47.474;9.416;2023-12-20T14:23:00;2.93;;;2.10;;
11267;SDS011;72685;47.474;9.416;2023-12-20T14:25:28;2.30;;;2.20;;
11267;SDS011;72685;47.474;9.416;2023-12-20T14:27:54;4.30;;;2.50;;
11267;SDS011;72685;47.474;9.416;2023-12-20T14:30:20;2.60;;;2.40;;
11267;SDS011;72685;47.474;9.416;2023-12-20T14:32:45;3.80;;;2.50;;
11267;SDS011;72685;47.474;9.416;2023-12-20T14:35:13;3.13;;;2.87;;
11267;SDS011;72685;47.474;9.416;2023-12-20T14:37:38;3.03;;;2.70;;
11267;SDS011;72685;47.474;9.416;2023-12-20T14:40:08;2.50;;;2.33;;
11267;SDS011;72685;47.474;9.416;2023-12-20T14:42:39;3.23;;;2.40;;
11267;SDS011;72685;47.474;9.416;2023-12-20T14:45:05;3.00;;;2.80;;
11267;SDS011;72685;47.474;9.416;2023-12-20T14:47:31;2.30;;;2.10;;